| time (UTC) | temp C | wind direction | speed KPH | gust KPH | rain 1hr cm | rain 24hr cm | rain mn cm | humidity % | barometer mb |
| 20260505124503 | 12 | 169 | 3.2 | 8.0 | 0.00 | 0.00 | 0.00 | 90 | 1016.4 |
| 20260505123004 | 12 | 170 | 3.2 | 8.0 | 0.00 | 0.00 | 0.00 | 90 | 1016.4 |
| 20260505121504 | 12 | 146 | 4.8 | 9.7 | 0.00 | 0.00 | 0.00 | 90 | 1016.2 |
| 20260505120005 | 12 | 159 | 3.2 | 11.3 | 0.00 | 0.00 | 0.00 | 90 | 1016.2 |
| 20260505113005 | 12 | 167 | 3.2 | 11.3 | 0.00 | 0.00 | 0.00 | 90 | 1016.1 |
| 20260505111504 | 12 | 182 | 1.6 | 6.4 | 0.00 | 0.00 | 0.00 | 90 | 1016.1 |
| 20260505101504 | 12 | 166 | 1.6 | 9.7 | 0.00 | 0.00 | 0.00 | 91 | 1015.6 |
| 20260505100004 | 12 | 169 | 4.8 | 11.3 | 0.00 | 0.00 | 0.00 | 91 | 1015.5 |
| 20260505094504 | 12 | 166 | 4.8 | 12.9 | 0.00 | 0.00 | 0.00 | 91 | 1015.5 |
| 20260505091503 | 12 | 177 | 1.6 | 6.4 | 0.00 | 0.00 | 0.00 | 92 | 1015.2 |
| 20260505090004 | 11 | 165 | 3.2 | 9.7 | 0.00 | 0.00 | 0.00 | 92 | 1015.1 |
| 20260505083004 | 12 | 179 | 1.6 | 4.8 | 0.00 | 0.00 | 0.00 | 91 | 1014.9 |
| 20260505081504 | 12 | 155 | 1.6 | 8.0 | 0.00 | 0.00 | 0.00 | 91 | 1014.9 |
| 20260505080007 | 12 | 163 | 3.2 | 8.0 | 0.00 | 0.00 | 0.00 | 90 | 1014.9 |
| 20260505074503 | 12 | 162 | 1.6 | 6.4 | 0.00 | 0.00 | 0.00 | 90 | 1014.9 |
| 20260505073004 | 12 | 165 | 1.6 | 8.0 | 0.00 | 0.00 | 0.00 | 89 | 1014.7 |
| 20260505071504 | 12 | 177 | 1.6 | 4.8 | 0.00 | 0.00 | 0.00 | 88 | 1014.6 |
| 20260505070005 | 13 | 156 | 1.6 | 4.8 | 0.00 | 0.00 | 0.00 | 87 | 1014.3 |
| 20260505064504 | 13 | 152 | 1.6 | 6.4 | 0.00 | 0.00 | 0.00 | 87 | 1014.2 |
| 20260505063004 | 13 | 172 | 1.6 | 6.4 | 0.00 | 0.00 | 0.00 | 86 | 1014.1 |
| 20260505061504 | 13 | 170 | 1.6 | 6.4 | 0.00 | 0.00 | 0.00 | 85 | 1013.9 |
| 20260505060004 | 14 | 147 | 1.6 | 8.0 | 0.00 | 0.00 | 0.00 | 84 | 1013.7 |
| 20260505054504 | 14 | 172 | 1.6 | 6.4 | 0.00 | 0.00 | 0.00 | 83 | 1013.3 |
| 20260505053004 | 15 | 154 | 1.6 | 9.7 | 0.00 | 0.00 | 0.00 | 82 | 1013.3 |
| 20260505051504 | 15 | 167 | 1.6 | 8.0 | 0.00 | 0.00 | 0.00 | 81 | 1013.2 |
| 20260505041505 | 16 | 0 | 0.0 | 0.0 | 0.00 | 0.00 | 0.00 | 76 | 1012.6 |
| 20260505040006 | 16 | 0 | 0.0 | 0.0 | 0.00 | 0.00 | 0.00 | 74 | 1012.4 |
| 20260505034505 | 17 | 0 | 0.0 | 0.0 | 0.00 | 0.00 | 0.00 | 74 | 1012.3 |
| 20260505033005 | 18 | 79 | 1.6 | 3.2 | 0.00 | 0.00 | 0.00 | 73 | 1011.9 |
| 20260505031509 | 18 | 47 | 0.0 | 1.6 | 0.00 | 0.00 | 0.00 | 72 | 1011.8 |
| 20260505030005 | 19 | 0 | 0.0 | 0.0 | 0.00 | 0.00 | 0.00 | 69 | 1011.8 |
| 20260505024506 | 20 | 0 | 0.0 | 0.0 | 0.00 | 0.00 | 0.00 | 68 | 1011.7 |
| 20260505023005 | 21 | 326 | 0.0 | 1.6 | 0.00 | 0.00 | 0.00 | 66 | 1011.7 |
| 20260505021505 | 22 | 7 | 1.6 | 3.2 | 0.00 | 0.00 | 0.00 | 62 | 1011.6 |
| 20260505020005 | 23 | 17 | 1.6 | 3.2 | 0.00 | 0.00 | 0.00 | 58 | 1011.5 |
| 20260505014506 | 25 | 163 | 3.2 | 8.0 | 0.00 | 0.00 | 0.00 | 54 | 1011.4 |
| 20260505013005 | 25 | 160 | 3.2 | 9.7 | 0.00 | 0.00 | 0.00 | 52 | 1011.4 |
| 20260505011508 | 25 | 168 | 3.2 | 9.7 | 0.00 | 0.00 | 0.00 | 53 | 1011.3 |
| 20260505010005 | 26 | 186 | 4.8 | 9.7 | 0.00 | 0.00 | 0.00 | 51 | 1011.5 |
| 20260505004504 | 26 | 181 | 4.8 | 9.7 | 0.00 | 0.00 | 0.00 | 51 | 1011.5 |
| 20260505003005 | 26 | 145 | 1.6 | 8.0 | 0.00 | 0.00 | 0.00 | 52 | 1011.5 |
| 20260505001504 | 26 | 151 | 1.6 | 9.7 | 0.00 | 0.00 | 0.00 | 52 | 1011.5 |
| 20260505000005 | 26 | 133 | 3.2 | 11.3 | 0.00 | 0.00 | 0.00 | 52 | 1011.5 |
| 20260504234505 | 26 | 146 | 1.6 | 8.0 | 0.00 | 0.00 | 0.00 | 50 | 1011.5 |
| 20260504233006 | 26 | 164 | 3.2 | 11.3 | 0.00 | 0.00 | 0.00 | 49 | 1011.5 |
| 20260504231505 | 26 | 182 | 0.0 | 6.4 | 0.00 | 0.00 | 0.00 | 50 | 1011.4 |
| 20260504230005 | 26 | 126 | 3.2 | 12.9 | 0.00 | 0.00 | 0.00 | 52 | 1011.6 |
| 20260504224505 | 26 | 109 | 3.2 | 11.3 | 0.00 | 0.00 | 0.00 | 50 | 1011.9 |
| 20260504223005 | 26 | 162 | 1.6 | 12.9 | 0.00 | 0.00 | 0.00 | 52 | 1012.0 |
| 20260504221505 | 26 | 196 | 3.2 | 11.3 | 0.00 | 0.00 | 0.00 | 47 | 1012.2 |
| 20260504220005 | 26 | 122 | 1.6 | 8.0 | 0.00 | 0.00 | 0.00 | 45 | 1012.4 |
| 20260504214505 | 25 | 189 | 3.2 | 12.9 | 0.00 | 0.00 | 0.00 | 51 | 1012.5 |
| 20260504213005 | 25 | 174 | 4.8 | 14.5 | 0.00 | 0.00 | 0.00 | 55 | 1012.6 |
| 20260504211504 | 25 | 178 | 4.8 | 11.3 | 0.00 | 0.00 | 0.00 | 56 | 1012.7 |
| 20260504204506 | 25 | 166 | 3.2 | 9.7 | 0.00 | 0.00 | 0.00 | 58 | 1012.8 |
| 20260504203005 | 25 | 172 | 6.4 | 14.5 | 0.00 | 0.00 | 0.00 | 57 | 1012.9 |
| 20260504201505 | 24 | 165 | 4.8 | 12.9 | 0.00 | 0.00 | 0.00 | 57 | 1012.8 |
| 20260504200005 | 24 | 156 | 3.2 | 12.9 | 0.00 | 0.00 | 0.00 | 60 | 1012.8 |
| 20260504194506 | 23 | 119 | 4.8 | 11.3 | 0.00 | 0.00 | 0.00 | 59 | 1013.0 |
| 20260504193005 | 23 | 157 | 3.2 | 9.7 | 0.00 | 0.00 | 0.00 | 56 | 1013.1 |
| 20260504191505 | 23 | 162 | 3.2 | 8.0 | 0.00 | 0.00 | 0.00 | 53 | 1013.2 |
| 20260504184505 | 23 | 111 | 3.2 | 9.7 | 0.00 | 0.00 | 0.00 | 49 | 1013.4 |
| 20260504183005 | 23 | 167 | 3.2 | 9.7 | 0.00 | 0.00 | 0.00 | 52 | 1013.2 |
| 20260504181505 | 23 | 186 | 3.2 | 9.7 | 0.00 | 0.00 | 0.00 | 51 | 1013.3 |
| 20260504180005 | 22 | 179 | 3.2 | 8.0 | 0.00 | 0.00 | 0.00 | 52 | 1013.3 |
| 20260504174504 | 22 | 165 | 3.2 | 8.0 | 0.00 | 0.00 | 0.00 | 56 | 1013.3 |
| 20260504173006 | 21 | 170 | 3.2 | 8.0 | 0.00 | 0.00 | 0.00 | 58 | 1013.3 |
| 20260504171505 | 21 | 175 | 3.2 | 6.4 | 0.00 | 0.00 | 0.00 | 63 | 1013.3 |